createdAt,value
2022-12-03T00:00:52.866Z,1017.74
2022-12-03T00:01:52.839Z,1017.73
2022-12-03T00:02:52.931Z,1017.70
2022-12-03T00:03:52.938Z,1017.64
2022-12-03T00:04:53.217Z,1017.66
2022-12-03T00:05:52.817Z,1017.66
2022-12-03T00:06:52.783Z,1017.64
2022-12-03T00:07:52.836Z,1017.71
2022-12-03T00:08:52.771Z,1017.71
2022-12-03T00:09:52.756Z,1017.69
2022-12-03T00:10:52.764Z,1017.68
2022-12-03T00:11:52.736Z,1017.65
2022-12-03T00:12:52.733Z,1017.67
2022-12-03T00:13:52.708Z,1017.66
2022-12-03T00:14:52.794Z,1017.61
2022-12-03T00:15:52.750Z,1017.66
2022-12-03T00:16:52.677Z,1017.64
2022-12-03T00:17:52.695Z,1017.65
2022-12-03T00:18:52.658Z,1017.67
2022-12-03T00:19:52.657Z,1017.66
2022-12-03T00:20:52.642Z,1017.63
2022-12-03T00:21:52.632Z,1017.61
2022-12-03T00:22:52.637Z,1017.63
2022-12-03T00:23:52.606Z,1017.62
2022-12-03T00:24:52.887Z,1017.58
2022-12-03T00:25:52.608Z,1017.63
2022-12-03T00:26:52.577Z,1017.61
2022-12-03T00:27:52.596Z,1017.62
2022-12-03T00:28:52.557Z,1017.60
2022-12-03T00:29:52.549Z,1017.63
2022-12-03T00:30:52.579Z,1017.63
2022-12-03T00:31:52.531Z,1017.67
2022-12-03T00:32:52.528Z,1017.64
2022-12-03T00:33:52.501Z,1017.56
2022-12-03T00:34:52.760Z,1017.56
2022-12-03T00:35:52.478Z,1017.62
2022-12-03T00:36:52.468Z,1017.57
2022-12-03T00:37:52.476Z,1017.61
2022-12-03T00:38:52.453Z,1017.55
2022-12-03T00:39:52.439Z,1017.56
2022-12-03T00:40:52.424Z,1017.55
2022-12-03T00:41:52.417Z,1017.58
2022-12-03T00:42:52.430Z,1017.57
2022-12-03T00:43:52.389Z,1017.55
2022-12-03T00:44:52.715Z,1017.55
2022-12-03T00:45:52.368Z,1017.59
2022-12-03T00:46:52.409Z,1017.54
2022-12-03T00:47:52.368Z,1017.55
2022-12-03T00:48:52.340Z,1017.51
2022-12-03T00:49:52.329Z,1017.53
2022-12-03T00:50:52.320Z,1017.52
2022-12-03T00:51:52.310Z,1017.49
2022-12-03T00:52:52.326Z,1017.52
2022-12-03T00:53:52.294Z,1017.53
2022-12-03T00:54:52.537Z,1017.55
2022-12-03T00:55:52.266Z,1017.54
2022-12-03T00:56:52.256Z,1017.56
2022-12-03T00:57:52.245Z,1017.55
2022-12-03T00:58:52.257Z,1017.56
2022-12-03T00:59:52.233Z,1017.55
2022-12-03T01:00:52.209Z,1017.61
2022-12-03T01:01:52.313Z,1017.58
2022-12-03T01:02:52.188Z,1017.59
2022-12-03T01:03:52.207Z,1017.56
2022-12-03T01:04:52.584Z,1017.58
2022-12-03T01:05:52.166Z,1017.62
2022-12-03T01:06:52.147Z,1017.58
2022-12-03T01:07:52.217Z,1017.63
2022-12-03T01:08:52.126Z,1017.64
2022-12-03T01:09:52.137Z,1017.62
2022-12-03T01:10:52.107Z,1017.62
2022-12-03T01:11:52.099Z,1017.61
2022-12-03T01:12:52.086Z,1017.64
2022-12-03T01:13:52.098Z,1017.64
2022-12-03T01:14:52.492Z,1017.59
2022-12-03T01:15:52.147Z,1017.64
2022-12-03T01:16:52.053Z,1017.58
2022-12-03T01:17:52.040Z,1017.63
2022-12-03T01:18:52.032Z,1017.60
2022-12-03T01:19:52.037Z,1017.64
2022-12-03T01:20:52.017Z,1017.62
2022-12-03T01:21:52.066Z,1017.64
2022-12-03T01:22:52.011Z,1017.63
2022-12-03T01:23:51.986Z,1017.64
2022-12-03T01:24:52.281Z,1017.63
2022-12-03T01:25:51.953Z,1017.62
2022-12-03T01:26:51.937Z,1017.73
2022-12-03T01:27:51.943Z,1017.65
2022-12-03T01:28:51.916Z,1017.68
2022-12-03T01:29:51.910Z,1017.67
2022-12-03T01:30:52.004Z,1017.70
2022-12-03T01:31:51.894Z,1017.68
2022-12-03T01:32:51.865Z,1017.70
2022-12-03T01:33:51.870Z,1017.65
2022-12-03T01:34:52.199Z,1017.63
2022-12-03T01:35:51.868Z,1017.65
2022-12-03T01:36:51.851Z,1017.63
2022-12-03T01:37:51.826Z,1017.64
2022-12-03T01:38:51.808Z,1017.64
2022-12-03T01:39:51.797Z,1017.62
2022-12-03T01:40:51.808Z,1017.61
2022-12-03T01:41:51.775Z,1017.61
2022-12-03T01:42:51.785Z,1017.60
2022-12-03T01:43:51.763Z,1017.57
2022-12-03T01:44:51.947Z,1017.53
2022-12-03T01:45:51.737Z,1017.60
2022-12-03T01:46:51.753Z,1017.59
2022-12-03T01:47:51.708Z,1017.60
2022-12-03T01:48:51.726Z,1017.59
2022-12-03T01:49:51.688Z,1017.59
2022-12-03T01:50:51.681Z,1017.64
2022-12-03T01:51:51.669Z,1017.63
2022-12-03T01:52:51.665Z,1017.62
2022-12-03T01:53:51.711Z,1017.68
2022-12-03T01:54:51.978Z,1017.68
2022-12-03T01:55:51.626Z,1017.61
2022-12-03T01:56:51.625Z,1017.59
2022-12-03T01:57:51.608Z,1017.59
2022-12-03T01:58:51.600Z,1017.57
2022-12-03T01:59:51.607Z,1017.62
2022-12-03T02:00:51.599Z,1017.67
2022-12-03T02:01:51.600Z,1017.66
2022-12-03T02:02:51.554Z,1017.68
2022-12-03T02:03:51.577Z,1017.69
2022-12-03T02:04:51.818Z,1017.62
2022-12-03T02:05:51.534Z,1017.68
2022-12-03T02:06:51.518Z,1017.65
2022-12-03T02:07:51.579Z,1017.66
2022-12-03T02:08:51.495Z,1017.66
2022-12-03T02:09:51.476Z,1017.68
2022-12-03T02:10:52.094Z,1017.67
2022-12-03T02:11:51.458Z,1017.69
2022-12-03T02:12:51.447Z,1017.73
2022-12-03T02:13:51.434Z,1017.71
2022-12-03T02:14:51.892Z,1017.71
2022-12-03T02:15:51.512Z,1017.65
2022-12-03T02:16:51.427Z,1017.69
2022-12-03T02:17:51.389Z,1017.65
2022-12-03T02:18:51.395Z,1017.68
2022-12-03T02:19:51.368Z,1017.70
2022-12-03T02:20:51.388Z,1017.60
2022-12-03T02:21:51.376Z,1017.66
2022-12-03T02:22:51.337Z,1017.66
2022-12-03T02:23:51.336Z,1017.61
2022-12-03T02:24:51.641Z,1017.62
2022-12-03T02:25:51.306Z,1017.64
2022-12-03T02:26:51.298Z,1017.65
2022-12-03T02:27:51.310Z,1017.64
2022-12-03T02:28:51.285Z,1017.66
2022-12-03T02:29:51.271Z,1017.62
2022-12-03T02:30:51.265Z,1017.63
2022-12-03T02:31:51.320Z,1017.63
2022-12-03T02:32:51.255Z,1017.61
2022-12-03T02:33:51.225Z,1017.60
2022-12-03T02:34:51.593Z,1017.64
2022-12-03T02:35:51.198Z,1017.62
2022-12-03T02:36:51.218Z,1017.62
2022-12-03T02:37:51.176Z,1017.56
2022-12-03T02:38:51.197Z,1017.56
2022-12-03T02:39:51.164Z,1017.53
2022-12-03T02:40:51.158Z,1017.53
2022-12-03T02:41:51.136Z,1017.54
2022-12-03T02:42:51.149Z,1017.49
2022-12-03T02:43:51.118Z,1017.51
2022-12-03T02:44:51.509Z,1017.56
2022-12-03T02:45:51.095Z,1017.51
2022-12-03T02:46:51.134Z,1017.60
2022-12-03T02:47:51.097Z,1017.55
2022-12-03T02:48:51.075Z,1017.54
2022-12-03T02:49:51.055Z,1017.54
2022-12-03T02:50:51.046Z,1017.56
2022-12-03T02:51:51.027Z,1017.56
2022-12-03T02:52:51.018Z,1017.53
2022-12-03T02:53:51.027Z,1017.52
2022-12-03T02:54:51.516Z,1017.51
2022-12-03T02:55:50.995Z,1017.53
2022-12-03T02:56:50.976Z,1017.54
2022-12-03T02:57:50.965Z,1017.51
2022-12-03T02:58:50.974Z,1017.50
2022-12-03T02:59:50.947Z,1017.52
2022-12-03T03:00:51.002Z,1017.50
2022-12-03T03:01:50.970Z,1017.48
2022-12-03T03:02:50.917Z,1017.51
2022-12-03T03:03:50.926Z,1017.52
2022-12-03T03:04:51.094Z,1017.50
2022-12-03T03:05:50.885Z,1017.52
2022-12-03T03:06:50.875Z,1017.50
2022-12-03T03:07:50.951Z,1017.53
2022-12-03T03:08:50.876Z,1017.53
2022-12-03T03:09:50.838Z,1017.55
2022-12-03T03:10:50.842Z,1017.50
2022-12-03T03:11:50.816Z,1017.49
2022-12-03T03:12:50.818Z,1017.51
2022-12-03T03:13:50.816Z,1017.47
2022-12-03T03:14:51.049Z,1017.51
2022-12-03T03:15:50.777Z,1017.50
2022-12-03T03:16:50.831Z,1017.53
2022-12-03T03:17:50.756Z,1017.51
2022-12-03T03:18:50.764Z,1017.43
2022-12-03T03:19:50.735Z,1017.48
2022-12-03T03:20:50.727Z,1017.49
2022-12-03T03:21:50.714Z,1017.47
2022-12-03T03:22:50.707Z,1017.48
2022-12-03T03:23:50.714Z,1017.43
2022-12-03T03:24:51.054Z,1017.49
2022-12-03T03:25:50.670Z,1017.44
2022-12-03T03:26:50.656Z,1017.45
2022-12-03T03:27:50.649Z,1017.45
2022-12-03T03:28:50.661Z,1017.45
2022-12-03T03:29:50.646Z,1017.45
2022-12-03T03:30:50.616Z,1017.41
2022-12-03T03:31:50.683Z,1017.45
2022-12-03T03:32:50.604Z,1017.39
2022-12-03T03:33:50.586Z,1017.43
2022-12-03T03:34:50.657Z,1017.41
2022-12-03T03:35:50.569Z,1017.44
2022-12-03T03:36:50.558Z,1017.39
2022-12-03T03:37:50.536Z,1017.41
2022-12-03T03:38:50.554Z,1017.41
2022-12-03T03:39:50.546Z,1017.45
2022-12-03T03:40:50.513Z,1017.38
2022-12-03T03:41:50.505Z,1017.39
2022-12-03T03:42:50.494Z,1017.37
2022-12-03T03:43:50.511Z,1017.41
2022-12-03T03:44:50.648Z,1017.37
2022-12-03T03:45:50.516Z,1017.36
2022-12-03T03:46:50.449Z,1017.36
2022-12-03T03:47:50.438Z,1017.36
2022-12-03T03:48:50.426Z,1017.38
2022-12-03T03:49:50.436Z,1017.36
2022-12-03T03:50:50.425Z,1017.35
2022-12-03T03:51:50.394Z,1017.29
2022-12-03T03:52:50.385Z,1017.28
2022-12-03T03:53:50.400Z,1017.25
2022-12-03T03:54:50.451Z,1017.27
2022-12-03T03:55:50.354Z,1017.22
2022-12-03T03:56:50.346Z,1017.27
2022-12-03T03:57:50.334Z,1017.24
2022-12-03T03:58:50.316Z,1017.22
2022-12-03T03:59:50.335Z,1017.23
2022-12-03T04:00:50.332Z,1017.22
2022-12-03T04:01:50.287Z,1017.20
2022-12-03T04:02:50.285Z,1017.20
2022-12-03T04:03:50.367Z,1017.23
2022-12-03T04:04:50.342Z,1017.23
2022-12-03T04:05:50.246Z,1017.18
2022-12-03T04:06:50.234Z,1017.23
2022-12-03T04:07:50.274Z,1017.23
2022-12-03T04:08:50.217Z,1017.13
2022-12-03T04:09:50.235Z,1017.18
2022-12-03T04:10:50.203Z,1017.16
2022-12-03T04:11:50.177Z,1017.17
2022-12-03T04:12:50.167Z,1017.17
2022-12-03T04:13:50.159Z,1017.11
2022-12-03T04:14:50.219Z,1017.10
2022-12-03T04:15:50.156Z,1017.11
2022-12-03T04:16:50.167Z,1017.10
2022-12-03T04:17:50.114Z,1017.06
2022-12-03T04:18:50.106Z,1017.06
2022-12-03T04:19:50.114Z,1017.03
2022-12-03T04:20:50.086Z,1017.10
2022-12-03T04:21:50.075Z,1017.11
2022-12-03T04:22:50.067Z,1017.04
2022-12-03T04:23:50.058Z,1017.09
2022-12-03T04:24:50.083Z,1017.10
2022-12-03T04:25:50.054Z,1017.09
2022-12-03T04:26:50.022Z,1017.13
2022-12-03T04:27:50.006Z,1017.13
2022-12-03T04:28:50.006Z,1017.02
2022-12-03T04:29:50.007Z,1017.15
2022-12-03T04:30:50.043Z,1017.08
2022-12-03T04:31:49.967Z,1017.08
2022-12-03T04:32:49.963Z,1017.05
2022-12-03T04:33:49.944Z,1017.05
2022-12-03T04:34:49.960Z,1017.03
2022-12-03T04:35:50.016Z,1017.07
2022-12-03T04:36:49.916Z,1017.02
2022-12-03T04:37:49.904Z,1017.02
2022-12-03T04:38:49.893Z,1017.02
2022-12-03T04:39:49.904Z,1017.03
2022-12-03T04:40:49.885Z,1017.01
2022-12-03T04:41:49.856Z,1017.02
2022-12-03T04:42:49.853Z,1016.98
2022-12-03T04:43:49.836Z,1017.03
2022-12-03T04:44:49.827Z,1017.04
2022-12-03T04:45:49.866Z,1017.01
2022-12-03T04:46:49.809Z,1017.02
2022-12-03T04:47:49.797Z,1017.07
2022-12-03T04:48:49.784Z,1017.09
2022-12-03T04:49:49.775Z,1017.04
2022-12-03T04:50:49.765Z,1017.12
2022-12-03T04:51:49.774Z,1017.10
2022-12-03T04:52:49.744Z,1017.10
2022-12-03T04:53:49.733Z,1017.13
2022-12-03T04:54:49.729Z,1017.10
2022-12-03T04:55:49.714Z,1017.12
2022-12-03T04:56:49.725Z,1017.11
2022-12-03T04:57:49.698Z,1017.13
2022-12-03T04:58:49.675Z,1017.17
2022-12-03T04:59:49.677Z,1017.12
2022-12-03T05:00:49.674Z,1017.17
2022-12-03T05:01:49.737Z,1017.13
2022-12-03T05:02:49.807Z,1017.14
2022-12-03T05:03:49.632Z,1017.19
2022-12-03T05:04:49.625Z,1017.17
2022-12-03T05:05:49.605Z,1017.17
2022-12-03T05:06:49.594Z,1017.23
2022-12-03T05:07:49.613Z,1017.19
2022-12-03T05:08:49.594Z,1017.21
2022-12-03T05:09:49.563Z,1017.20
2022-12-03T05:10:49.551Z,1017.21
2022-12-03T05:11:49.547Z,1017.22
2022-12-03T05:12:49.526Z,1017.21
2022-12-03T05:13:49.549Z,1017.23
2022-12-03T05:14:49.506Z,1017.22
2022-12-03T05:15:49.505Z,1017.21
2022-12-03T05:16:49.553Z,1017.23
2022-12-03T05:17:49.473Z,1017.23
2022-12-03T05:18:49.466Z,1017.22
2022-12-03T05:19:49.483Z,1017.22
2022-12-03T05:20:53.278Z,1017.21
2022-12-03T05:21:49.436Z,1017.18
2022-12-03T05:22:49.425Z,1017.17
2022-12-03T05:23:49.542Z,1017.16
2022-12-03T05:24:49.424Z,1017.14
2022-12-03T05:25:49.396Z,1017.18
2022-12-03T05:26:49.377Z,1017.18
2022-12-03T05:27:49.367Z,1017.18
2022-12-03T05:28:49.364Z,1017.13
2022-12-03T05:29:49.364Z,1017.18
2022-12-03T05:30:49.413Z,1017.12
2022-12-03T05:31:49.333Z,1017.17
2022-12-03T05:32:49.314Z,1017.16
2022-12-03T05:33:49.313Z,1017.15
2022-12-03T05:34:49.331Z,1017.18
2022-12-03T05:35:49.312Z,1017.11
2022-12-03T05:36:49.278Z,1017.08
2022-12-03T05:37:49.265Z,1017.06
2022-12-03T05:38:49.256Z,1017.05
2022-12-03T05:39:49.243Z,1017.07
2022-12-03T05:40:49.254Z,1017.04
2022-12-03T05:41:49.222Z,1017.09
2022-12-03T05:42:49.205Z,1017.08
2022-12-03T05:43:49.205Z,1017.04
2022-12-03T05:44:49.184Z,1017.02
2022-12-03T05:45:49.238Z,1016.99
2022-12-03T05:46:49.172Z,1017.02
2022-12-03T05:47:49.155Z,1017.03
2022-12-03T05:48:49.146Z,1017.02
2022-12-03T05:49:49.133Z,1017.03
2022-12-03T05:50:49.123Z,1017.02
2022-12-03T05:51:51.466Z,1016.99
2022-12-03T05:52:50.103Z,1017.01
2022-12-03T05:53:49.094Z,1017.03
2022-12-03T05:54:49.083Z,1017.01
2022-12-03T05:55:49.076Z,1017.05
2022-12-03T05:56:49.084Z,1017.06
2022-12-03T05:57:49.054Z,1017.02
2022-12-03T05:58:49.041Z,1017.08
2022-12-03T05:59:49.034Z,1017.01
2022-12-03T06:00:49.021Z,1017.07
2022-12-03T06:01:49.028Z,1016.99
2022-12-03T06:02:49.079Z,1017.06
2022-12-03T06:03:49.143Z,1017.05
2022-12-03T06:04:48.996Z,1017.02
2022-12-03T06:05:48.975Z,1016.98
2022-12-03T06:06:48.975Z,1017.06
2022-12-03T06:07:49.019Z,1017.02
2022-12-03T06:08:48.934Z,1017.07
2022-12-03T06:09:48.926Z,1017.08
2022-12-03T06:10:48.933Z,1017.02
2022-12-03T06:11:48.924Z,1017.03
2022-12-03T06:12:48.914Z,1017.03
2022-12-03T06:13:48.880Z,1017.03
2022-12-03T06:14:48.872Z,1016.99
2022-12-03T06:15:48.952Z,1016.99
2022-12-03T06:16:48.864Z,1016.96
2022-12-03T06:17:48.865Z,1016.97
2022-12-03T06:18:48.834Z,1016.96
2022-12-03T06:19:48.815Z,1016.93
2022-12-03T06:20:48.804Z,1016.92
2022-12-03T06:21:48.795Z,1016.94
2022-12-03T06:22:48.829Z,1016.98
2022-12-03T06:23:48.774Z,1016.98
2022-12-03T06:24:48.763Z,1016.94
2022-12-03T06:25:48.751Z,1016.95
2022-12-03T06:26:48.794Z,1016.97
2022-12-03T06:27:48.832Z,1016.94
2022-12-03T06:28:48.734Z,1016.94
2022-12-03T06:29:48.714Z,1016.93
2022-12-03T06:30:48.788Z,1016.95
2022-12-03T06:31:48.684Z,1016.98
2022-12-03T06:32:48.694Z,1016.95
2022-12-03T06:33:48.671Z,1016.95
2022-12-03T06:34:48.654Z,1016.94
2022-12-03T06:35:48.642Z,1016.92
2022-12-03T06:36:48.646Z,1016.92
2022-12-03T06:37:48.644Z,1016.94
2022-12-03T06:38:48.614Z,1016.95
2022-12-03T06:39:48.603Z,1016.96
2022-12-03T06:40:48.593Z,1016.95
2022-12-03T06:41:48.585Z,1017.00
2022-12-03T06:42:48.574Z,1016.98
2022-12-03T06:43:48.604Z,1017.04
2022-12-03T06:44:48.553Z,1017.00
2022-12-03T06:45:48.543Z,1016.95
2022-12-03T06:46:48.560Z,1016.96
2022-12-03T06:47:48.514Z,1016.96
2022-12-03T06:48:48.535Z,1016.96
2022-12-03T06:49:48.498Z,1017.00
2022-12-03T06:50:48.621Z,1016.93
2022-12-03T06:51:48.475Z,1016.96
2022-12-03T06:52:48.464Z,1016.95
2022-12-03T06:53:48.455Z,1016.94
2022-12-03T06:54:48.473Z,1016.93
2022-12-03T06:55:48.436Z,1016.98
2022-12-03T06:56:48.423Z,1016.95
2022-12-03T06:57:48.412Z,1016.93
2022-12-03T06:58:48.405Z,1017.00
2022-12-03T06:59:48.412Z,1016.96
2022-12-03T07:00:48.385Z,1016.95
2022-12-03T07:01:48.414Z,1016.92
2022-12-03T07:02:48.406Z,1016.93
2022-12-03T07:03:48.349Z,1016.92
2022-12-03T07:04:48.333Z,1016.92
2022-12-03T07:05:48.352Z,1016.91
2022-12-03T07:06:48.314Z,1016.88
2022-12-03T07:07:48.356Z,1016.86
2022-12-03T07:08:48.302Z,1016.89
2022-12-03T07:09:48.392Z,1016.81
2022-12-03T07:10:48.305Z,1016.90
2022-12-03T07:11:48.263Z,1016.90
2022-12-03T07:12:48.253Z,1016.88
2022-12-03T07:13:48.245Z,1016.86
2022-12-03T07:14:48.234Z,1016.89
2022-12-03T07:15:48.280Z,1016.90
2022-12-03T07:16:48.212Z,1016.89
2022-12-03T07:17:48.210Z,1016.91
2022-12-03T07:18:48.193Z,1016.90
2022-12-03T07:19:48.180Z,1016.91
2022-12-03T07:20:48.172Z,1016.88
2022-12-03T07:21:48.174Z,1016.87
2022-12-03T07:22:48.153Z,1016.86
2022-12-03T07:23:48.171Z,1016.91
2022-12-03T07:24:48.122Z,1016.86
2022-12-03T07:25:48.112Z,1016.87
2022-12-03T07:26:48.122Z,1016.90
2022-12-03T07:27:48.098Z,1016.85
2022-12-03T07:28:48.088Z,1016.82
2022-12-03T07:29:48.074Z,1016.85
2022-12-03T07:30:48.061Z,1016.87
2022-12-03T07:31:48.158Z,1016.86
2022-12-03T07:32:48.044Z,1016.89
2022-12-03T07:33:48.046Z,1016.84
2022-12-03T07:34:48.021Z,1016.87
2022-12-03T07:35:48.004Z,1016.89
2022-12-03T07:36:48.024Z,1016.84
2022-12-03T07:37:47.982Z,1016.86
2022-12-03T07:38:47.974Z,1016.85
2022-12-03T07:39:47.963Z,1016.87
2022-12-03T07:40:47.961Z,1016.88
2022-12-03T07:41:47.945Z,1016.84
2022-12-03T07:42:47.960Z,1016.90
2022-12-03T07:43:47.921Z,1016.88
2022-12-03T07:44:47.914Z,1016.92
2022-12-03T07:45:47.902Z,1016.92
2022-12-03T07:46:48.098Z,1016.90
2022-12-03T07:47:47.881Z,1016.90
2022-12-03T07:48:47.892Z,1016.91
2022-12-03T07:49:47.853Z,1016.91
2022-12-03T07:50:47.853Z,1016.90
2022-12-03T07:51:47.833Z,1016.91
2022-12-03T07:52:47.832Z,1016.88
2022-12-03T07:53:47.820Z,1016.93
2022-12-03T07:54:47.833Z,1016.87
2022-12-03T07:55:47.794Z,1016.92
2022-12-03T07:56:47.782Z,1016.87
2022-12-03T07:57:47.774Z,1016.85
2022-12-03T07:58:47.791Z,1016.88
2022-12-03T07:59:48.081Z,1016.87
2022-12-03T08:00:47.817Z,1016.87
2022-12-03T08:01:47.768Z,1016.90
2022-12-03T08:02:47.792Z,1016.89
2022-12-03T08:03:47.723Z,1016.90
2022-12-03T08:04:47.730Z,1016.90
2022-12-03T08:05:47.695Z,1016.85
2022-12-03T08:06:47.682Z,1016.88
2022-12-03T08:07:47.783Z,1016.89
2022-12-03T08:08:47.660Z,1016.83
2022-12-03T08:09:47.650Z,1016.88
2022-12-03T08:10:47.662Z,1016.87
2022-12-03T08:11:47.622Z,1016.89
2022-12-03T08:12:47.623Z,1016.92
2022-12-03T08:13:47.603Z,1016.83
2022-12-03T08:14:47.606Z,1016.89
2022-12-03T08:15:47.603Z,1016.88
2022-12-03T08:16:47.634Z,1016.85
2022-12-03T08:17:47.562Z,1016.88
2022-12-03T08:18:47.581Z,1016.85
2022-12-03T08:19:47.541Z,1016.86
2022-12-03T08:20:47.569Z,1016.89
2022-12-03T08:21:47.520Z,1016.84
2022-12-03T08:22:47.517Z,1016.90
2022-12-03T08:23:47.523Z,1016.87
2022-12-03T08:24:47.482Z,1016.89
2022-12-03T08:25:47.501Z,1016.87
2022-12-03T08:26:47.491Z,1016.85
2022-12-03T08:27:47.460Z,1016.87
2022-12-03T08:28:47.451Z,1016.85
2022-12-03T08:29:47.460Z,1016.87
2022-12-03T08:30:47.454Z,1016.89
2022-12-03T08:31:47.442Z,1016.88
2022-12-03T08:32:47.403Z,1016.92
2022-12-03T08:33:47.393Z,1016.90
2022-12-03T08:34:47.391Z,1016.87
2022-12-03T08:35:47.374Z,1016.90
2022-12-03T08:36:47.390Z,1016.88
2022-12-03T08:37:47.350Z,1016.88
2022-12-03T08:38:47.341Z,1016.82
2022-12-03T08:39:47.332Z,1016.84
2022-12-03T08:40:47.322Z,1016.93
2022-12-03T08:41:47.301Z,1016.87
2022-12-03T08:42:47.321Z,1016.86
2022-12-03T08:43:47.282Z,1016.88
2022-12-03T08:44:47.284Z,1016.86
2022-12-03T08:45:47.282Z,1016.89
2022-12-03T08:46:47.261Z,1016.89
2022-12-03T08:47:47.260Z,1016.89
2022-12-03T08:48:49.504Z,1016.85
2022-12-03T08:49:47.224Z,1016.88
2022-12-03T08:50:47.211Z,1016.90
2022-12-03T08:51:47.201Z,1016.86
2022-12-03T08:52:47.212Z,1016.83
2022-12-03T08:53:47.205Z,1016.83
2022-12-03T08:54:47.180Z,1016.82
2022-12-03T08:55:47.162Z,1016.83
2022-12-03T08:56:47.151Z,1016.89
2022-12-03T08:57:47.140Z,1016.88
2022-12-03T08:58:47.152Z,1016.92
2022-12-03T08:59:47.120Z,1016.90
2022-12-03T09:00:47.156Z,1016.90
2022-12-03T09:01:47.171Z,1016.91
2022-12-03T09:02:47.112Z,1016.84
2022-12-03T09:03:47.162Z,1016.93
2022-12-03T09:04:47.090Z,1016.91
2022-12-03T09:05:47.052Z,1016.89
2022-12-03T09:06:47.049Z,1016.91
2022-12-03T09:07:47.101Z,1016.90
2022-12-03T09:08:47.025Z,1016.90
2022-12-03T09:09:47.032Z,1016.88
2022-12-03T09:10:47.004Z,1016.91
2022-12-03T09:11:46.993Z,1016.88
2022-12-03T09:12:46.981Z,1016.87
2022-12-03T09:13:46.972Z,1016.92
2022-12-03T09:14:46.962Z,1016.89
2022-12-03T09:15:46.968Z,1016.89
2022-12-03T09:16:46.997Z,1016.91
2022-12-03T09:17:46.924Z,1016.88
2022-12-03T09:18:46.940Z,1016.86
2022-12-03T09:19:46.903Z,1016.84
2022-12-03T09:20:46.920Z,1016.78
2022-12-03T09:21:46.890Z,1016.81
2022-12-03T09:22:46.872Z,1016.81
2022-12-03T09:23:46.870Z,1016.84
2022-12-03T09:24:46.860Z,1016.84
2022-12-03T09:25:46.861Z,1016.85
2022-12-03T09:26:46.833Z,1016.86
2022-12-03T09:27:46.822Z,1016.88
2022-12-03T09:28:46.813Z,1016.89
2022-12-03T09:29:46.831Z,1016.93
2022-12-03T09:30:46.796Z,1016.90
2022-12-03T09:31:46.838Z,1016.87
2022-12-03T09:32:46.770Z,1016.90
2022-12-03T09:33:46.764Z,1016.87
2022-12-03T09:34:46.750Z,1016.90
2022-12-03T09:35:46.765Z,1016.88
2022-12-03T09:36:46.733Z,1016.87
2022-12-03T09:37:46.731Z,1016.90
2022-12-03T09:38:48.287Z,1016.89
2022-12-03T09:39:46.702Z,1016.86
2022-12-03T09:40:46.715Z,1016.83
2022-12-03T09:41:46.676Z,1016.87
2022-12-03T09:42:46.663Z,1016.81
2022-12-03T09:44:03.797Z,1016.82
2022-12-03T09:44:47.671Z,1016.85
2022-12-03T09:45:46.760Z,1016.85
2022-12-03T09:46:46.638Z,1016.81
2022-12-03T09:47:46.671Z,1016.82
2022-12-03T09:48:46.599Z,1016.80
2022-12-03T09:49:46.591Z,1016.77
2022-12-03T09:50:46.598Z,1016.73
2022-12-03T09:51:46.563Z,1016.81
2022-12-03T09:52:46.551Z,1016.77
2022-12-03T09:53:46.549Z,1016.76
2022-12-03T09:54:47.703Z,1016.75
2022-12-03T09:55:46.551Z,1016.73
2022-12-03T09:56:46.520Z,1016.70
2022-12-03T09:57:46.500Z,1016.74
2022-12-03T09:58:46.500Z,1016.71
2022-12-03T09:59:46.480Z,1016.68
2022-12-03T10:00:46.506Z,1016.70
2022-12-03T10:01:46.502Z,1016.73
2022-12-03T10:02:46.461Z,1016.67
2022-12-03T10:03:46.441Z,1016.63
2022-12-03T10:04:46.494Z,1016.58
2022-12-03T10:05:48.158Z,1016.63
2022-12-03T10:06:46.543Z,1016.58
2022-12-03T10:07:46.422Z,1016.54
2022-12-03T10:08:46.388Z,1016.52
2022-12-03T10:09:46.374Z,1016.52
2022-12-03T10:10:46.384Z,1016.58
2022-12-03T10:11:46.351Z,1016.50
2022-12-03T10:12:46.341Z,1016.49
2022-12-03T10:13:46.340Z,1016.48
2022-12-03T10:14:46.321Z,1016.50
2022-12-03T10:15:46.339Z,1016.48
2022-12-03T10:16:46.433Z,1016.52
2022-12-03T10:17:46.298Z,1016.51
2022-12-03T10:18:46.279Z,1016.51
2022-12-03T10:19:46.270Z,1016.50
2022-12-03T10:20:46.258Z,1016.48
2022-12-03T10:21:46.271Z,1016.47
2022-12-03T10:22:46.232Z,1016.51
2022-12-03T10:23:48.371Z,1016.48
2022-12-03T10:24:46.228Z,1016.44
2022-12-03T10:25:46.210Z,1016.47
2022-12-03T10:26:46.222Z,1016.50
2022-12-03T10:27:46.190Z,1016.46
2022-12-03T10:28:46.170Z,1016.48
2022-12-03T10:29:46.159Z,1016.46
2022-12-03T10:30:46.213Z,1016.47
2022-12-03T10:31:46.151Z,1016.47
2022-12-03T10:32:46.149Z,1016.44
2022-12-03T10:33:46.122Z,1016.46
2022-12-03T10:34:46.112Z,1016.40
2022-12-03T10:35:46.099Z,1016.43
2022-12-03T10:36:46.095Z,1016.39
2022-12-03T10:37:46.108Z,1016.41
2022-12-03T10:38:46.069Z,1016.40
2022-12-03T10:39:48.919Z,1016.40
2022-12-03T10:40:47.041Z,1016.38
2022-12-03T10:41:46.040Z,1016.38
2022-12-03T10:42:46.020Z,1016.39
2022-12-03T10:43:46.039Z,1016.39
2022-12-03T10:44:46.068Z,1016.35
2022-12-03T10:45:46.020Z,1016.37
2022-12-03T10:46:46.060Z,1016.33
2022-12-03T10:47:46.026Z,1016.34
2022-12-03T10:48:45.986Z,1016.24
2022-12-03T10:49:45.950Z,1016.29
2022-12-03T10:50:45.939Z,1016.23
2022-12-03T10:51:45.981Z,1016.23
2022-12-03T10:52:45.919Z,1016.15
2022-12-03T10:53:45.911Z,1016.19
2022-12-03T10:54:45.920Z,1016.14
2022-12-03T10:55:45.894Z,1016.14
2022-12-03T10:56:45.879Z,1016.13
2022-12-03T10:57:46.392Z,1016.15
2022-12-03T10:58:45.854Z,1016.14
2022-12-03T10:59:45.870Z,1016.13
2022-12-03T11:00:45.840Z,1016.08
2022-12-03T11:01:45.970Z,1016.16
2022-12-03T11:02:45.820Z,1016.12
2022-12-03T11:03:45.868Z,1016.14
2022-12-03T11:04:45.789Z,1016.13
2022-12-03T11:05:45.807Z,1016.10
2022-12-03T11:06:45.779Z,1016.12
2022-12-03T11:07:45.772Z,1016.10
2022-12-03T11:08:45.749Z,1016.09
2022-12-03T11:09:45.759Z,1016.05
2022-12-03T11:10:45.763Z,1016.08
2022-12-03T11:11:45.718Z,1016.06
2022-12-03T11:12:45.710Z,1016.05
2022-12-03T11:13:45.700Z,1015.99
2022-12-03T11:14:45.712Z,1016.00
2022-12-03T11:15:45.719Z,1015.96
2022-12-03T11:16:45.661Z,1015.97
2022-12-03T11:17:45.650Z,1015.96
2022-12-03T11:18:45.651Z,1015.97
2022-12-03T11:19:45.665Z,1015.99
2022-12-03T11:20:45.633Z,1015.91
2022-12-03T11:21:45.612Z,1015.88
2022-12-03T11:22:45.600Z,1015.89
2022-12-03T11:23:45.620Z,1015.86
2022-12-03T11:24:45.601Z,1015.89
2022-12-03T11:25:45.570Z,1015.89
2022-12-03T11:26:45.559Z,1015.85
2022-12-03T11:27:45.559Z,1015.86
2022-12-03T11:28:45.538Z,1015.85
2022-12-03T11:29:45.549Z,1015.88
2022-12-03T11:30:45.540Z,1015.77
2022-12-03T11:31:45.694Z,1015.79
2022-12-03T11:32:45.490Z,1015.79
2022-12-03T11:33:45.489Z,1015.76
2022-12-03T11:34:45.474Z,1015.83
2022-12-03T11:35:45.489Z,1015.76
2022-12-03T11:37:01.095Z,1015.77
2022-12-03T11:37:46.441Z,1015.72
2022-12-03T11:38:52.410Z,1015.78
2022-12-03T11:39:46.420Z,1015.72
2022-12-03T11:40:45.414Z,1015.71
2022-12-03T11:41:45.418Z,1015.67
2022-12-03T11:42:45.390Z,1015.68
2022-12-03T11:43:45.379Z,1015.72
2022-12-03T11:44:45.361Z,1015.70
2022-12-03T11:45:45.368Z,1015.70
2022-12-03T11:46:45.392Z,1015.75
2022-12-03T11:47:45.371Z,1015.66
2022-12-03T11:48:45.322Z,1015.73
2022-12-03T11:49:45.313Z,1015.71
2022-12-03T11:50:45.308Z,1015.67
2022-12-03T11:51:45.315Z,1015.66
2022-12-03T11:52:45.282Z,1015.70
2022-12-03T11:53:45.269Z,1015.71
2022-12-03T11:54:45.259Z,1015.69
2022-12-03T11:55:45.250Z,1015.65
2022-12-03T11:56:45.267Z,1015.66
2022-12-03T11:57:45.229Z,1015.67
2022-12-03T11:58:45.220Z,1015.61
2022-12-03T11:59:45.208Z,1015.56
2022-12-03T12:00:45.196Z,1015.55
2022-12-03T12:01:45.199Z,1015.60
2022-12-03T12:02:45.288Z,1015.57
2022-12-03T12:03:45.270Z,1015.60
2022-12-03T12:04:45.159Z,1015.59
2022-12-03T12:05:45.148Z,1015.58